Main page
METAR-TAF:

METAR-TAF

Airports :

Niederstetten, Germany

Niederstetten Air Base

latitude: 49-24N, longitude: 009-58E, elevation: 468 m

Current weather observation

The report was made 48 minutes ago, at 01:20 UTC
Wind 2 kt from the West/Southwest
Temperature 14°C
Humidity 67%
Pressure 1020 hPa
Visibility 10 km or more
Few clouds at a height of 28000 ft

METAR: ETHN 210120Z 25002KT 9999 FEW280 14/08 Q1020 BLU+

Time: 04:08 (02:08 UTC)

Forecast

The report was made 16 hours and 12 minutes ago, at 09:56 UTC
Forecast valid from 20 at 08 UTC to 20 at 17 UTC
Wind 7 kt from the East/Southeast
Visibility: 1000 m
Scattered clouds at a height of 30000 ft

TAF: ETHN 200956Z 2008/2017 11007KT 9999 NSW SCT300 CANCEL 1000

Weather observations and forecasts of more than 4000 airports (METAR and TAF reports).

The available stations are represented by yellow and red dots on the map.

Hover mouse over dot to see the name of the station.

Then click to see weather observations and forecasts.

To change the map : click on the green buttons with a black cross to zoom in, on the green button with a dash to zoom out, or on the green arrows for adjacent maps.


METAR-TAF: